Time;durP1;ratioP1;P1;durP2;ratioP2;P2;SDS_P1;SDS_P2;PMS_P1;PMS_P2;Temp;Humidity;BMP_temperature;BMP_pressure;BME280_temperature;BME280_humidity;BME280_pressure;Samples;Min_cycle;Max_cycle;Signal;HPM_P1;HPM_P2
2022/02/20 00:02:16;;;;;;;3.83;2.20;;;;;;;;;;4996582;28;20054;-69
2022/02/20 00:04:46;;;;;;;3.92;2.08;;;;;;;;;;4978736;28;20603;-70
2022/02/20 00:07:14;;;;;;;8.70;2.50;;;;;;;;;;4996102;28;20038;-70
2022/02/20 00:09:43;;;;;;;4.00;2.10;;;;;;;;;;4996355;28;20429;-70
2022/02/20 00:12:10;;;;;;;7.22;2.55;;;;;;;;;;4995934;28;20081;-67
2022/02/20 00:14:38;;;;;;;6.80;2.40;;;;;;;;;;4996147;28;20042;-69
2022/02/20 00:17:06;;;;;;;9.13;2.40;;;;;;;;;;4996774;28;20050;-69
2022/02/20 00:19:33;;;;;;;4.72;2.50;;;;;;;;;;4996089;28;20134;-69
2022/02/20 00:22:01;;;;;;;6.88;2.60;;;;;;;;;;4996446;28;20124;-69
2022/02/20 00:24:30;;;;;;;6.38;2.60;;;;;;;;;;4995338;28;20042;-69
2022/02/20 00:26:57;;;;;;;6.47;2.40;;;;;;;;;;4995828;28;20448;-69
2022/02/20 00:29:25;;;;;;;9.15;2.88;;;;;;;;;;4995926;28;20049;-69
2022/02/20 00:31:53;;;;;;;10.02;3.38;;;;;;;;;;4977918;28;20116;-68
2022/02/20 00:34:20;;;;;;;5.88;2.70;;;;;;;;;;4995693;28;20038;-68
2022/02/20 00:36:48;;;;;;;6.43;2.33;;;;;;;;;;4977413;28;20521;-68
2022/02/20 00:39:17;;;;;;;7.47;2.60;;;;;;;;;;4987739;28;20387;-69
2022/02/20 00:41:45;;;;;;;6.25;2.40;;;;;;;;;;4978040;28;20077;-69
2022/02/20 00:44:14;;;;;;;7.00;2.83;;;;;;;;;;4995320;28;20460;-69
2022/02/20 00:46:42;;;;;;;6.32;2.55;;;;;;;;;;4995128;28;20043;-69
2022/02/20 00:49:09;;;;;;;7.88;2.58;;;;;;;;;;4995675;28;20042;-69
2022/02/20 00:51:38;;;;;;;5.95;2.35;;;;;;;;;;4977830;28;20039;-69
2022/02/20 00:54:10;;;;;;;5.35;2.50;;;;;;;;;;4977991;28;20049;-69
2022/02/20 00:56:38;;;;;;;5.80;2.60;;;;;;;;;;4995288;28;20058;-69
2022/02/20 00:59:06;;;;;;;5.30;2.40;;;;;;;;;;4977616;28;20113;-69
2022/02/20 01:01:34;;;;;;;6.20;2.50;;;;;;;;;;4977800;28;20129;-68
2022/02/20 01:04:02;;;;;;;6.75;2.28;;;;;;;;;;4977880;28;20038;-68
2022/02/20 01:06:30;;;;;;;5.00;2.15;;;;;;;;;;4977720;28;20049;-68
2022/02/20 01:08:58;;;;;;;4.63;2.10;;;;;;;;;;4977505;28;20054;-69
2022/02/20 01:11:25;;;;;;;7.93;2.58;;;;;;;;;;4977312;28;20134;-69
2022/02/20 01:13:53;;;;;;;3.67;2.45;;;;;;;;;;4977364;28;20049;-69
2022/02/20 01:16:20;;;;;;;6.78;2.35;;;;;;;;;;4977598;28;20050;-68
2022/02/20 01:18:48;;;;;;;4.22;2.20;;;;;;;;;;4995056;28;20044;-69
2022/02/20 01:21:16;;;;;;;9.32;2.42;;;;;;;;;;4995291;28;20074;-69
2022/02/20 01:23:45;;;;;;;5.50;2.42;;;;;;;;;;4994706;28;20049;-69
2022/02/20 01:26:13;;;;;;;3.28;2.13;;;;;;;;;;4994567;28;20558;-68
2022/02/20 01:28:41;;;;;;;6.72;2.35;;;;;;;;;;4994813;28;20042;-68
2022/02/20 01:31:08;;;;;;;10.13;2.20;;;;;;;;;;4994479;28;20050;-69
2022/02/20 01:33:36;;;;;;;3.63;2.28;;;;;;;;;;4994637;28;20112;-68
2022/02/20 01:36:03;;;;;;;3.85;2.30;;;;;;;;;;4994228;28;20042;-68
2022/02/20 01:38:31;;;;;;;5.80;2.30;;;;;;;;;;4977168;28;20042;-69
2022/02/20 01:40:59;;;;;;;3.95;2.20;;;;;;;;;;4977304;28;20405;-69
2022/02/20 01:43:28;;;;;;;3.45;2.08;;;;;;;;;;4976343;28;20137;-69
2022/02/20 01:45:56;;;;;;;8.00;2.53;;;;;;;;;;4963440;28;20043;-69
2022/02/20 01:48:25;;;;;;;3.78;1.85;;;;;;;;;;4957129;28;20153;-69
2022/02/20 01:50:53;;;;;;;4.93;2.08;;;;;;;;;;4974594;28;20134;-69
2022/02/20 01:53:20;;;;;;;4.85;2.08;;;;;;;;;;4941794;28;20502;-68
2022/02/20 01:55:50;;;;;;;4.80;2.00;;;;;;;;;;4974840;28;20118;-69
2022/02/20 01:58:21;;;;;;;;;;;;;;;;;;4975711;28;20043;-69
2022/02/20 02:01:09;;;;;;;4.78;2.20;;;;;;;;;;4944497;28;20001;-69
2022/02/20 02:03:54;;;;;;;7.82;2.28;;;;;;;;;;4957371;28;20070;-68
2022/02/20 02:06:34;;;;;;;4.53;1.73;;;;;;;;;;4957245;28;20047;-68
2022/02/20 02:09:03;;;;;;;2.85;1.85;;;;;;;;;;4957037;28;20479;-69
2022/02/20 02:11:42;;;;;;;3.67;2.00;;;;;;;;;;4957033;28;20566;-68
2022/02/20 02:14:28;;;;;;;4.82;1.90;;;;;;;;;;4974974;28;20049;-69
2022/02/20 02:17:05;;;;;;;4.97;2.28;;;;;;;;;;4956906;28;20502;-68
2022/02/20 02:19:45;;;;;;;5.43;1.90;;;;;;;;;;4974606;28;20419;-68
2022/02/20 02:22:24;;;;;;;7.40;2.45;;;;;;;;;;4957279;28;20467;-68
2022/02/20 02:25:10;;;;;;;4.28;2.05;;;;;;;;;;4973568;28;20422;-68
2022/02/20 02:27:58;;;;;;;4.78;2.05;;;;;;;;;;4972514;28;20050;-68
2022/02/20 02:30:37;;;;;;;5.70;2.17;;;;;;;;;;4976943;28;20042;-68
2022/02/20 02:33:08;;;;;;;2.75;1.60;;;;;;;;;;4975924;28;20435;-69
2022/02/20 02:35:37;;;;;;;8.80;2.30;;;;;;;;;;4993284;28;20054;-68
2022/02/20 02:38:05;;;;;;;4.00;2.28;;;;;;;;;;4976071;28;20069;-68
2022/02/20 02:40:33;;;;;;;5.38;2.20;;;;;;;;;;4993381;28;20457;-68
2022/02/20 02:43:01;;;;;;;7.00;2.20;;;;;;;;;;4975763;28;20046;-68
2022/02/20 02:45:28;;;;;;;2.72;2.00;;;;;;;;;;4993310;28;20038;-68
2022/02/20 02:47:57;;;;;;;3.20;1.90;;;;;;;;;;4975617;28;20038;-68
2022/02/20 02:50:25;;;;;;;5.63;2.28;;;;;;;;;;4976175;28;20118;-69
2022/02/20 02:52:57;;;;;;;6.03;2.15;;;;;;;;;;4960650;28;20038;-69
2022/02/20 02:55:25;;;;;;;3.50;1.95;;;;;;;;;;4975462;28;20042;-68
2022/02/20 02:57:52;;;;;;;6.45;1.90;;;;;;;;;;4975590;28;20050;-69
2022/02/20 03:00:20;;;;;;;4.28;2.20;;;;;;;;;;4993270;28;20050;-69
2022/02/20 03:02:47;;;;;;;4.68;2.72;;;;;;;;;;4993179;28;20093;-68
2022/02/20 03:05:16;;;;;;;4.95;2.58;;;;;;;;;;4975685;28;20470;-69
2022/02/20 03:07:46;;;;;;;3.17;1.70;;;;;;;;;;4975474;28;20043;-68
2022/02/20 03:10:15;;;;;;;3.95;2.03;;;;;;;;;;4975903;28;20486;-68
2022/02/20 03:12:43;;;;;;;2.88;1.58;;;;;;;;;;4975461;28;20042;-69
2022/02/20 03:15:10;;;;;;;2.75;1.60;;;;;;;;;;4975778;28;20073;-68
2022/02/20 03:17:38;;;;;;;3.70;1.70;;;;;;;;;;4975805;28;20053;-69
2022/02/20 03:20:07;;;;;;;6.75;1.55;;;;;;;;;;4975888;28;20046;-69
2022/02/20 03:22:39;;;;;;;5.50;1.98;;;;;;;;;;4975876;28;20162;-68
2022/02/20 03:25:07;;;;;;;3.95;1.60;;;;;;;;;;4975269;28;20066;-69
2022/02/20 03:27:37;;;;;;;5.00;1.80;;;;;;;;;;4975485;28;20061;-68
2022/02/20 03:30:10;;;;;;;3.03;1.77;;;;;;;;;;4975617;28;20066;-69
2022/02/20 03:32:44;;;;;;;2.95;1.70;;;;;;;;;;4960366;28;20072;-68
2022/02/20 03:35:13;;;;;;;3.10;1.58;;;;;;;;;;4975554;28;20166;-68
2022/02/20 03:37:41;;;;;;;2.58;1.65;;;;;;;;;;4993172;28;20117;-68
2022/02/20 03:40:09;;;;;;;2.17;1.77;;;;;;;;;;4975484;28;20074;-69
2022/02/20 03:42:36;;;;;;;2.33;1.70;;;;;;;;;;4975869;28;20100;-69
2022/02/20 03:45:26;;;;;;;3.95;1.80;;;;;;;;;;4968676;28;20121;-68
2022/02/20 03:47:54;;;;;;;2.35;1.77;;;;;;;;;;4975075;28;20061;-69
2022/02/20 03:50:23;;;;;;;3.25;1.80;;;;;;;;;;4975723;28;20049;-68
2022/02/20 03:52:57;;;;;;;4.13;1.75;;;;;;;;;;4993215;28;20093;-69
2022/02/20 03:55:28;;;;;;;4.40;2.03;;;;;;;;;;4975425;28;20097;-68
2022/02/20 03:57:57;;;;;;;3.22;1.70;;;;;;;;;;4975683;28;20056;-68
2022/02/20 04:00:43;;;;;;;2.60;1.65;;;;;;;;;;4992879;28;20065;-67
2022/02/20 04:03:26;;;;;;;;;;;;;;;;;;4975531;28;20183;-68
2022/02/20 04:05:56;;;;;;;3.83;1.85;;;;;;;;;;4975001;28;20300;-68
2022/02/20 04:08:25;;;;;;;6.43;2.00;;;;;;;;;;4977660;28;20069;-68
2022/02/20 04:10:58;;;;;;;5.60;2.05;;;;;;;;;;4978142;28;20042;-68
2022/02/20 04:13:40;;;;;;;;;;;;;;;;;;4979279;28;20085;-68
2022/02/20 04:16:12;;;;;;;3.08;2.10;;;;;;;;;;4978269;28;19925;-67
2022/02/20 04:18:42;;;;;;;4.72;2.28;;;;;;;;;;4978355;28;20053;-68
2022/02/20 04:21:20;;;;;;;5.60;2.33;;;;;;;;;;4970762;28;20137;-68
2022/02/20 04:23:53;;;;;;;7.78;3.20;;;;;;;;;;4978006;28;20050;-67
2022/02/20 04:26:21;;;;;;;5.95;2.90;;;;;;;;;;4977947;28;20058;-67
2022/02/20 04:28:49;;;;;;;6.85;3.25;;;;;;;;;;4978245;28;20101;-68
2022/02/20 04:31:18;;;;;;;5.25;2.45;;;;;;;;;;4978551;28;20047;-68
2022/02/20 04:33:50;;;;;;;6.03;2.92;;;;;;;;;;4978148;28;20053;-68
2022/02/20 04:36:18;;;;;;;4.22;2.60;;;;;;;;;;4978186;28;20461;-68
2022/02/20 04:38:51;;;;;;;6.97;2.38;;;;;;;;;;4978687;28;20048;-68
2022/02/20 04:41:22;;;;;;;8.18;2.60;;;;;;;;;;4995984;28;20038;-68
2022/02/20 04:43:50;;;;;;;3.88;2.50;;;;;;;;;;4977982;28;20082;-68
2022/02/20 04:46:18;;;;;;;7.20;2.47;;;;;;;;;;4977863;28;20069;-68
2022/02/20 04:48:46;;;;;;;5.00;2.50;;;;;;;;;;4977672;28;20042;-69
2022/02/20 04:51:52;;;;;;;5.80;2.50;;;;;;;;;;4916583;29;20600;-68
2022/02/20 04:54:40;;;;;;;5.15;2.60;;;;;;;;;;4916446;29;20059;-68
2022/02/20 04:57:08;;;;;;;6.93;2.70;;;;;;;;;;4899230;29;20056;-67
2022/02/20 04:59:35;;;;;;;6.65;2.85;;;;;;;;;;4900379;29;20099;-68
2022/02/20 05:02:04;;;;;;;10.45;4.93;;;;;;;;;;4900391;29;20141;-67
2022/02/20 05:04:36;;;;;;;8.25;3.40;;;;;;;;;;4900250;29;20372;-69
2022/02/20 05:07:07;;;;;;;9.80;3.97;;;;;;;;;;4900680;29;20044;-68
2022/02/20 05:09:38;;;;;;;9.73;4.28;;;;;;;;;;4900506;29;20053;-68
2022/02/20 05:12:06;;;;;;;9.70;4.40;;;;;;;;;;4900203;29;20052;-68
2022/02/20 05:14:34;;;;;;;8.90;4.10;;;;;;;;;;4900600;29;20131;-67
2022/02/20 05:17:37;;;;;;;7.32;3.55;;;;;;;;;;4901074;29;20159;-67
2022/02/20 05:20:06;;;;;;;8.53;4.20;;;;;;;;;;4899622;29;20100;-68
2022/02/20 05:22:36;;;;;;;9.85;4.30;;;;;;;;;;4936519;28;20284;-68
2022/02/20 05:25:08;;;;;;;7.50;3.90;;;;;;;;;;4976849;28;20039;-68
2022/02/20 05:27:36;;;;;;;10.57;3.42;;;;;;;;;;4977141;28;20569;-67
2022/02/20 05:30:05;;;;;;;8.50;3.58;;;;;;;;;;4976679;28;20144;-67
2022/02/20 05:32:35;;;;;;;9.93;5.13;;;;;;;;;;4977652;28;20379;-67
2022/02/20 05:35:18;;;;;;;10.93;4.35;;;;;;;;;;4969382;28;20134;-68
2022/02/20 05:37:49;;;;;;;6.13;3.35;;;;;;;;;;4977911;28;20371;-68
2022/02/20 05:40:21;;;;;;;7.15;3.13;;;;;;;;;;4969751;28;20054;-68
2022/02/20 05:42:57;;;;;;;8.27;3.55;;;;;;;;;;4977288;28;20047;-69
2022/02/20 05:45:28;;;;;;;9.15;4.15;;;;;;;;;;4976919;28;20085;-68
2022/02/20 05:48:00;;;;;;;9.30;3.77;;;;;;;;;;4961191;28;20053;-68
2022/02/20 05:50:31;;;;;;;7.68;3.70;;;;;;;;;;4977114;28;20038;-67
2022/02/20 05:52:59;;;;;;;8.15;3.38;;;;;;;;;;4976831;28;20046;-68
2022/02/20 05:55:29;;;;;;;10.73;3.72;;;;;;;;;;4976814;28;20045;-68
2022/02/20 05:57:57;;;;;;;9.23;3.50;;;;;;;;;;4976997;28;20074;-67
2022/02/20 06:00:35;;;;;;;5.55;3.38;;;;;;;;;;4976714;28;20042;-67
2022/02/20 06:03:04;;;;;;;11.93;3.55;;;;;;;;;;4976511;28;20150;-68
2022/02/20 06:05:39;;;;;;;6.50;2.78;;;;;;;;;;4976328;28;20519;-68
2022/02/20 06:08:36;;;;;;;7.10;3.05;;;;;;;;;;4975374;28;20510;-68
2022/02/20 06:11:20;;;;;;;8.32;2.97;;;;;;;;;;4968603;28;20562;-68
2022/02/20 06:14:05;;;;;;;5.88;3.00;;;;;;;;;;4994159;28;20113;-68
2022/02/20 06:16:39;;;;;;;12.98;4.13;;;;;;;;;;4961118;28;20046;-69
2022/02/20 06:19:21;;;;;;;9.77;3.65;;;;;;;;;;4962764;28;20054;-68
2022/02/20 06:22:07;;;;;;;10.60;3.30;;;;;;;;;;4994057;28;20089;-68
2022/02/20 06:24:46;;;;;;;7.00;3.20;;;;;;;;;;4976493;28;20109;-68
2022/02/20 06:27:22;;;;;;;8.70;2.97;;;;;;;;;;4969012;28;20077;-69
2022/02/20 06:30:14;;;;;;;7.25;2.90;;;;;;;;;;4976316;28;20383;-68
2022/02/20 06:32:42;;;;;;;8.27;3.80;;;;;;;;;;4976528;28;20046;-68
2022/02/20 06:35:14;;;;;;;6.68;3.80;;;;;;;;;;4994158;28;20435;-68
2022/02/20 06:37:41;;;;;;;7.40;3.75;;;;;;;;;;4976523;28;20061;-67
2022/02/20 06:40:11;;;;;;;12.55;4.20;;;;;;;;;;4976444;28;20077;-68
2022/02/20 06:42:41;;;;;;;7.30;3.70;;;;;;;;;;4993806;28;20085;-67
2022/02/20 06:45:18;;;;;;;8.70;3.20;;;;;;;;;;4968686;28;20046;-67
2022/02/20 06:48:06;;;;;;;6.20;3.00;;;;;;;;;;4993232;28;20050;-67
2022/02/20 06:51:10;;;;;;;6.75;4.00;;;;;;;;;;4933715;29;20125;-68
2022/02/20 06:54:08;;;;;;;6.63;3.80;;;;;;;;;;4984804;28;20521;-68
2022/02/20 06:56:47;;;;;;;10.30;5.20;;;;;;;;;;4976177;28;20042;-68
2022/02/20 06:59:15;;;;;;;10.40;5.03;;;;;;;;;;4993471;28;20042;-68
2022/02/20 07:01:43;;;;;;;12.65;6.68;;;;;;;;;;4993633;28;20048;-68
2022/02/20 07:04:11;;;;;;;10.50;5.85;;;;;;;;;;4992596;28;20117;-68
2022/02/20 07:06:41;;;;;;;12.35;5.88;;;;;;;;;;4993116;28;20405;-68
2022/02/20 07:09:10;;;;;;;9.45;5.72;;;;;;;;;;4993055;28;20042;-68
2022/02/20 07:11:39;;;;;;;12.98;5.53;;;;;;;;;;4992911;28;20074;-68
2022/02/20 07:14:07;;;;;;;9.98;5.80;;;;;;;;;;4992799;28;20034;-68
2022/02/20 07:16:35;;;;;;;13.30;6.40;;;;;;;;;;4993885;28;20054;-69
2022/02/20 07:19:02;;;;;;;14.60;7.05;;;;;;;;;;4987143;28;20402;-69
2022/02/20 07:21:29;;;;;;;11.32;5.55;;;;;;;;;;4983630;28;20069;-69
2022/02/20 07:24:02;;;;;;;8.73;4.03;;;;;;;;;;4992304;28;20054;-68
2022/02/20 07:26:32;;;;;;;9.82;4.93;;;;;;;;;;4999233;23;20054;-68
2022/02/20 07:28:59;;;;;;;13.60;7.53;;;;;;;;;;4993111;28;20054;-68
2022/02/20 07:31:28;;;;;;;15.40;7.68;;;;;;;;;;4975139;28;20042;-69
2022/02/20 07:33:57;;;;;;;13.05;7.13;;;;;;;;;;4991659;28;20096;-69
2022/02/20 07:36:24;;;;;;;13.52;5.20;;;;;;;;;;4974971;28;20125;-68
2022/02/20 07:38:52;;;;;;;10.35;5.05;;;;;;;;;;4993455;28;20137;-69
2022/02/20 07:41:19;;;;;;;7.90;4.63;;;;;;;;;;4993175;28;20381;-69
2022/02/20 07:43:49;;;;;;;12.77;5.90;;;;;;;;;;4996085;28;20043;-68
2022/02/20 07:46:17;;;;;;;13.88;7.55;;;;;;;;;;4979107;28;20043;-70
2022/02/20 07:48:45;;;;;;;16.63;6.82;;;;;;;;;;4996016;28;20038;-68
2022/02/20 07:51:14;;;;;;;11.63;6.20;;;;;;;;;;4996966;28;20054;-69
2022/02/20 07:53:43;;;;;;;8.15;4.75;;;;;;;;;;4996796;28;20042;-69
2022/02/20 07:56:12;;;;;;;7.15;4.00;;;;;;;;;;4996850;28;20142;-68
2022/02/20 07:58:39;;;;;;;10.05;4.30;;;;;;;;;;4996499;28;20049;-69
2022/02/20 08:01:07;;;;;;;12.45;4.45;;;;;;;;;;4996373;28;20042;-69
2022/02/20 08:03:36;;;;;;;9.00;4.32;;;;;;;;;;4996509;28;20048;-69
2022/02/20 08:06:05;;;;;;;9.40;4.10;;;;;;;;;;4996233;28;20050;-68
2022/02/20 08:08:33;;;;;;;7.28;4.25;;;;;;;;;;4996037;28;20046;-68
2022/02/20 08:11:01;;;;;;;9.45;4.60;;;;;;;;;;4996130;28;20038;-69
2022/02/20 08:13:29;;;;;;;7.30;4.75;;;;;;;;;;4996008;28;20045;-68
2022/02/20 08:16:00;;;;;;;9.90;4.60;;;;;;;;;;4995737;28;20081;-69
2022/02/20 08:18:28;;;;;;;7.63;4.20;;;;;;;;;;4996266;28;20066;-69
2022/02/20 08:20:55;;;;;;;9.85;5.05;;;;;;;;;;4995765;28;20046;-69
2022/02/20 08:23:44;;;;;;;9.23;4.82;;;;;;;;;;4995678;28;20164;-69
2022/02/20 08:26:15;;;;;;;13.82;4.63;;;;;;;;;;4995665;28;20093;-68
2022/02/20 08:28:44;;;;;;;11.23;5.20;;;;;;;;;;4978306;28;20049;-70
2022/02/20 08:31:12;;;;;;;10.85;4.55;;;;;;;;;;4978302;28;20050;-69
2022/02/20 08:33:40;;;;;;;7.25;4.68;;;;;;;;;;4995945;28;20051;-69
2022/02/20 08:36:15;;;;;;;8.63;4.00;;;;;;;;;;4995215;28;20054;-68
2022/02/20 08:38:42;;;;;;;6.55;3.67;;;;;;;;;;4995793;28;20145;-67
2022/02/20 08:41:10;;;;;;;9.02;4.03;;;;;;;;;;4990555;28;20512;-68
2022/02/20 08:43:37;;;;;;;9.73;4.10;;;;;;;;;;4995552;28;20042;-69
2022/02/20 08:46:05;;;;;;;11.05;4.40;;;;;;;;;;4995453;28;20050;-69
2022/02/20 08:48:36;;;;;;;11.85;4.05;;;;;;;;;;4978018;28;20466;-68
2022/02/20 08:51:05;;;;;;;12.40;5.28;;;;;;;;;;4995446;28;20042;-69
2022/02/20 08:53:35;;;;;;;11.23;6.03;;;;;;;;;;4994416;28;20050;-69
2022/02/20 08:56:03;;;;;;;15.82;7.25;;;;;;;;;;4994823;28;20096;-70
2022/02/20 08:58:32;;;;;;;14.23;7.32;;;;;;;;;;4995584;28;20042;-69
2022/02/20 09:01:02;;;;;;;11.70;5.03;;;;;;;;;;4995017;28;20097;-67
2022/02/20 09:03:30;;;;;;;10.40;4.35;;;;;;;;;;4978092;28;20077;-67
2022/02/20 09:06:02;;;;;;;7.53;3.92;;;;;;;;;;4995320;28;20168;-68
2022/02/20 09:08:30;;;;;;;7.72;3.80;;;;;;;;;;4995356;28;20042;-67
2022/02/20 09:10:58;;;;;;;8.25;3.72;;;;;;;;;;4994899;28;20093;-67
2022/02/20 09:13:25;;;;;;;7.47;4.10;;;;;;;;;;4977368;28;20141;-68
2022/02/20 09:15:54;;;;;;;9.50;4.00;;;;;;;;;;4994684;28;20117;-69
2022/02/20 09:18:21;;;;;;;9.93;4.07;;;;;;;;;;4977729;28;20050;-70
2022/02/20 09:20:49;;;;;;;10.95;3.45;;;;;;;;;;4994980;28;20508;-69
2022/02/20 09:23:17;;;;;;;11.07;3.97;;;;;;;;;;4994779;28;20448;-70
2022/02/20 09:25:45;;;;;;;9.10;4.03;;;;;;;;;;4995535;28;20038;-70
2022/02/20 09:28:13;;;;;;;9.77;3.85;;;;;;;;;;4994737;28;20520;-68
2022/02/20 09:30:40;;;;;;;7.68;3.65;;;;;;;;;;4994566;28;20043;-69
2022/02/20 09:33:08;;;;;;;12.45;3.70;;;;;;;;;;4994464;28;20478;-67
2022/02/20 09:35:36;;;;;;;8.63;3.35;;;;;;;;;;4977668;28;20121;-69
2022/02/20 09:38:05;;;;;;;10.98;6.45;;;;;;;;;;4994365;28;20042;-67
2022/02/20 09:40:33;;;;;;;7.32;3.00;;;;;;;;;;4994661;28;20053;-69
2022/02/20 09:43:01;;;;;;;8.02;2.92;;;;;;;;;;4994028;28;20062;-68
2022/02/20 09:45:29;;;;;;;6.30;2.90;;;;;;;;;;4994936;28;20045;-69
2022/02/20 09:48:01;;;;;;;7.22;3.05;;;;;;;;;;4994422;28;20049;-69
2022/02/20 09:50:29;;;;;;;9.98;3.28;;;;;;;;;;4994500;28;20407;-67
2022/02/20 09:52:56;;;;;;;7.38;3.45;;;;;;;;;;4994220;28;20046;-69
2022/02/20 09:55:24;;;;;;;9.57;3.20;;;;;;;;;;4990728;28;20041;-67
2022/02/20 09:57:52;;;;;;;7.75;3.20;;;;;;;;;;4967036;28;20379;-70
2022/02/20 10:00:19;;;;;;;9.20;3.53;;;;;;;;;;4981812;28;20499;-69
2022/02/20 10:02:48;;;;;;;7.60;3.38;;;;;;;;;;4974506;28;20050;-69
2022/02/20 10:05:16;;;;;;;7.65;3.60;;;;;;;;;;4974445;28;20054;-70
2022/02/20 10:07:44;;;;;;;8.82;3.70;;;;;;;;;;4974480;28;20053;-67
2022/02/20 10:10:11;;;;;;;11.20;3.72;;;;;;;;;;5000052;28;20046;-68
2022/02/20 10:12:39;;;;;;;10.90;4.30;;;;;;;;;;4996273;28;20370;-69
2022/02/20 10:15:24;;;;;;;10.73;4.88;;;;;;;;;;4996798;28;20042;-68
2022/02/20 10:17:58;;;;;;;9.75;3.60;;;;;;;;;;5013921;28;20117;-69
2022/02/20 10:20:44;;;;;;;9.15;2.97;;;;;;;;;;5014002;28;20496;-67
2022/02/20 10:23:40;;;;;;;9.23;3.95;;;;;;;;;;4991391;28;20109;-68
2022/02/20 10:26:47;;;;;;;7.03;3.20;;;;;;;;;;4907516;29;20540;-68
2022/02/20 10:29:33;;;;;;;7.15;3.00;;;;;;;;;;4990590;28;20124;-67
2022/02/20 10:32:01;;;;;;;11.43;3.50;;;;;;;;;;4993876;28;20468;-67
2022/02/20 10:34:29;;;;;;;10.85;3.85;;;;;;;;;;4993937;28;20050;-68
2022/02/20 10:37:04;;;;;;;7.60;2.90;;;;;;;;;;4993373;28;20054;-69
2022/02/20 10:39:34;;;;;;;6.57;2.75;;;;;;;;;;4993230;28;20062;-69
2022/02/20 10:42:02;;;;;;;4.63;2.92;;;;;;;;;;4976335;28;20053;-69
2022/02/20 10:44:29;;;;;;;9.15;2.85;;;;;;;;;;4993462;28;20046;-68
2022/02/20 10:47:14;;;;;;;9.18;3.05;;;;;;;;;;4993582;28;20038;-69
2022/02/20 10:49:42;;;;;;;9.18;2.75;;;;;;;;;;4992703;28;20097;-68
2022/02/20 10:52:23;;;;;;;12.98;3.10;;;;;;;;;;4993336;28;20038;-69
2022/02/20 10:55:03;;;;;;;11.55;3.00;;;;;;;;;;4993745;28;20049;-68
2022/02/20 10:57:49;;;;;;;7.05;2.30;;;;;;;;;;4993705;28;20039;-70
2022/02/20 11:00:17;;;;;;;9.27;2.70;;;;;;;;;;4993376;28;20050;-67
2022/02/20 11:02:45;;;;;;;10.57;3.00;;;;;;;;;;4993387;28;20494;-67
2022/02/20 11:05:13;;;;;;;10.27;2.67;;;;;;;;;;4976363;28;20454;-69
2022/02/20 11:07:41;;;;;;;11.15;3.60;;;;;;;;;;4993427;28;20387;-68
2022/02/20 11:10:12;;;;;;;12.55;4.22;;;;;;;;;;4993475;28;20043;-69
2022/02/20 11:12:40;;;;;;;12.93;4.25;;;;;;;;;;4993312;28;20039;-68
2022/02/20 11:15:10;;;;;;;17.38;6.13;;;;;;;;;;4993560;28;20051;-68
2022/02/20 11:17:38;;;;;;;15.63;6.47;;;;;;;;;;5001590;28;20080;-67
2022/02/20 11:20:06;;;;;;;9.55;2.90;;;;;;;;;;5017072;28;20129;-69
2022/02/20 11:22:37;;;;;;;15.65;3.85;;;;;;;;;;4999253;28;20053;-68
2022/02/20 11:25:07;;;;;;;8.77;2.92;;;;;;;;;;5016938;28;20073;-68
2022/02/20 11:27:44;;;;;;;9.80;2.90;;;;;;;;;;4984003;28;20069;-68
2022/02/20 11:30:11;;;;;;;11.43;3.33;;;;;;;;;;4997026;28;20418;-67
2022/02/20 11:32:41;;;;;;;6.30;2.83;;;;;;;;;;4997418;28;20132;-67
2022/02/20 11:35:09;;;;;;;12.10;3.13;;;;;;;;;;4996921;28;20045;-68
2022/02/20 11:37:47;;;;;;;6.53;2.90;;;;;;;;;;4996794;28;20053;-69
2022/02/20 11:40:17;;;;;;;8.52;3.20;;;;;;;;;;4996979;28;20097;-69
2022/02/20 11:43:00;;;;;;;12.07;3.17;;;;;;;;;;4996835;28;20421;-68
2022/02/20 11:45:29;;;;;;;9.27;3.38;;;;;;;;;;4996930;28;20126;-68
2022/02/20 11:48:04;;;;;;;9.30;3.38;;;;;;;;;;4996512;28;20074;-68
2022/02/20 11:50:33;;;;;;;12.30;3.60;;;;;;;;;;4997351;28;20414;-68
2022/02/20 11:53:02;;;;;;;10.38;4.00;;;;;;;;;;4996665;28;20158;-67
2022/02/20 11:55:32;;;;;;;12.05;4.10;;;;;;;;;;4996532;28;20034;-68
2022/02/20 11:58:12;;;;;;;8.73;4.25;;;;;;;;;;4996693;28;20121;-68
2022/02/20 12:01:03;;;;;;;8.23;3.40;;;;;;;;;;4996227;28;20049;-67
2022/02/20 12:03:53;;;;;;;7.22;3.60;;;;;;;;;;4979154;28;20053;-67
2022/02/20 12:06:23;;;;;;;10.65;4.50;;;;;;;;;;4996241;28;20030;-67
2022/02/20 12:08:53;;;;;;;9.25;4.07;;;;;;;;;;4996582;28;20053;-70
2022/02/20 12:11:26;;;;;;;9.02;3.83;;;;;;;;;;4996451;28;20124;-67
2022/02/20 12:13:55;;;;;;;9.15;3.67;;;;;;;;;;4996482;28;20070;-69
2022/02/20 12:16:31;;;;;;;8.43;3.55;;;;;;;;;;4996940;28;20050;-66
2022/02/20 12:19:17;;;;;;;6.90;3.30;;;;;;;;;;4979152;28;20478;-66
2022/02/20 12:21:52;;;;;;;9.18;3.13;;;;;;;;;;4996104;28;20125;-68
2022/02/20 12:24:30;;;;;;;6.78;3.55;;;;;;;;;;4995789;28;20046;-68
2022/02/20 12:26:58;;;;;;;5.60;2.85;;;;;;;;;;4996390;28;20422;-68
2022/02/20 12:29:39;;;;;;;9.15;2.85;;;;;;;;;;4995918;28;20038;-67
2022/02/20 12:32:14;;;;;;;5.80;2.95;;;;;;;;;;4996176;28;20038;-66
2022/02/20 12:35:00;;;;;;;3.75;2.83;;;;;;;;;;4996325;28;20077;-68
2022/02/20 12:37:29;;;;;;;6.78;3.17;;;;;;;;;;4995842;28;20073;-68
2022/02/20 12:39:58;;;;;;;10.57;3.30;;;;;;;;;;4995701;28;20046;-68
2022/02/20 12:42:27;;;;;;;8.75;2.85;;;;;;;;;;4995782;28;20050;-67
2022/02/20 12:45:08;;;;;;;7.03;2.75;;;;;;;;;;4995911;28;20546;-67
2022/02/20 12:47:38;;;;;;;4.20;2.55;;;;;;;;;;4995813;28;20387;-68
2022/02/20 12:50:07;;;;;;;5.03;2.55;;;;;;;;;;4995569;28;20046;-68
2022/02/20 12:52:36;;;;;;;9.80;3.13;;;;;;;;;;4995995;28;20064;-68
2022/02/20 12:55:09;;;;;;;9.35;3.20;;;;;;;;;;4995975;28;20050;-67
2022/02/20 12:57:36;;;;;;;9.30;3.15;;;;;;;;;;4995687;28;20466;-67
2022/02/20 13:00:09;;;;;;;10.40;2.78;;;;;;;;;;4995666;28;20043;-68
2022/02/20 13:02:38;;;;;;;4.57;2.28;;;;;;;;;;4995609;28;20070;-67
2022/02/20 13:05:07;;;;;;;3.70;2.00;;;;;;;;;;4995562;28;20046;-67
2022/02/20 13:07:55;;;;;;;2.45;1.80;;;;;;;;;;4995307;28;20043;-67
2022/02/20 13:10:27;;;;;;;2.63;1.60;;;;;;;;;;4995523;28;20042;-67
2022/02/20 13:12:55;;;;;;;3.87;1.87;;;;;;;;;;4995031;28;20038;-66
2022/02/20 13:15:23;;;;;;;2.72;2.10;;;;;;;;;;4995696;28;20121;-66
2022/02/20 13:17:53;;;;;;;4.78;1.95;;;;;;;;;;4995441;28;20038;-67
2022/02/20 13:20:27;;;;;;;4.80;1.60;;;;;;;;;;4995469;28;20038;-66
2022/02/20 13:22:55;;;;;;;4.43;2.15;;;;;;;;;;4995012;28;20046;-67
2022/02/20 13:25:23;;;;;;;6.38;2.38;;;;;;;;;;4994766;28;20470;-68
2022/02/20 13:27:52;;;;;;;4.28;2.30;;;;;;;;;;4994984;28;20178;-66
2022/02/20 13:30:26;;;;;;;5.78;2.45;;;;;;;;;;4994904;28;20062;-68
2022/02/20 13:32:53;;;;;;;4.38;2.38;;;;;;;;;;4995060;28;20049;-68
2022/02/20 13:35:41;;;;;;;5.90;2.38;;;;;;;;;;4994639;28;20141;-66
2022/02/20 13:38:12;;;;;;;3.65;2.10;;;;;;;;;;4995061;28;20048;-66
2022/02/20 13:40:43;;;;;;;9.48;2.47;;;;;;;;;;4994256;28;20405;-68
2022/02/20 13:43:13;;;;;;;4.18;2.15;;;;;;;;;;4994615;28;20141;-67
2022/02/20 13:45:57;;;;;;;7.07;2.63;;;;;;;;;;4994841;28;20437;-67
2022/02/20 13:48:38;;;;;;;3.17;1.85;;;;;;;;;;4976850;28;20040;-68
2022/02/20 13:51:22;;;;;;;6.30;2.65;;;;;;;;;;4994760;28;20386;-68
2022/02/20 13:53:58;;;;;;;5.28;2.42;;;;;;;;;;4994574;28;20471;-67
2022/02/20 13:56:42;;;;;;;3.97;2.17;;;;;;;;;;4977650;28;20093;-67
2022/02/20 13:59:10;;;;;;;5.47;2.45;;;;;;;;;;4994716;28;20046;-67
2022/02/20 14:01:40;;;;;;;6.00;2.50;;;;;;;;;;4994254;28;20410;-68
2022/02/20 14:04:22;;;;;;;7.28;2.83;;;;;;;;;;4994051;28;20125;-66
2022/02/20 14:07:00;;;;;;;5.80;2.30;;;;;;;;;;4994555;28;20051;-66
2022/02/20 14:09:28;;;;;;;5.20;2.20;;;;;;;;;;4991855;28;20050;-68
2022/02/20 14:12:12;;;;;;;5.50;2.67;;;;;;;;;;4974536;28;20050;-66
2022/02/20 14:14:40;;;;;;;5.15;2.53;;;;;;;;;;4985323;28;20049;-67
2022/02/20 14:17:08;;;;;;;4.32;2.47;;;;;;;;;;4976134;28;20053;-67
2022/02/20 14:19:43;;;;;;;4.90;2.60;;;;;;;;;;4994024;28;20077;-67
2022/02/20 14:22:11;;;;;;;5.85;2.70;;;;;;;;;;4992528;28;20125;-67
2022/02/20 14:24:39;;;;;;;9.65;2.50;;;;;;;;;;4988582;28;20498;-68
2022/02/20 14:27:07;;;;;;;9.32;2.75;;;;;;;;;;4977053;28;20526;-66
2022/02/20 14:29:36;;;;;;;5.70;2.80;;;;;;;;;;4973828;28;20042;-67
2022/02/20 14:32:06;;;;;;;7.53;2.88;;;;;;;;;;4974083;28;20069;-67
2022/02/20 14:34:43;;;;;;;7.75;2.60;;;;;;;;;;4973896;28;20043;-66
2022/02/20 14:37:12;;;;;;;6.25;2.75;;;;;;;;;;4973552;28;20138;-67
2022/02/20 14:39:39;;;;;;;5.20;2.72;;;;;;;;;;4956289;28;20059;-66
2022/02/20 14:42:07;;;;;;;5.72;2.80;;;;;;;;;;4982919;28;20050;-66
2022/02/20 14:44:34;;;;;;;5.82;2.60;;;;;;;;;;4993294;28;20042;-66
2022/02/20 14:47:07;;;;;;;7.20;2.77;;;;;;;;;;4993454;28;20054;-66
2022/02/20 14:49:36;;;;;;;3.92;2.30;;;;;;;;;;4993166;28;20042;-67
2022/02/20 14:52:04;;;;;;;4.93;2.53;;;;;;;;;;4993683;28;20046;-67
2022/02/20 14:54:32;;;;;;;5.47;2.40;;;;;;;;;;4993372;28;20049;-66
2022/02/20 14:57:00;;;;;;;10.02;5.03;;;;;;;;;;4993332;28;20042;-66
2022/02/20 14:59:47;;;;;;;5.85;2.67;;;;;;;;;;4993360;28;20046;-66
2022/02/20 15:02:15;;;;;;;5.97;2.50;;;;;;;;;;4993135;28;20042;-70
2022/02/20 15:04:43;;;;;;;7.53;3.50;;;;;;;;;;4993240;28;20409;-67
2022/02/20 15:07:13;;;;;;;8.90;5.68;;;;;;;;;;4993460;28;20402;-67
2022/02/20 15:09:55;;;;;;;23.98;17.98;;;;;;;;;;4993298;28;20093;-66